KRWL/RWL METAR and TAF weather

Enter ICAO airport designator
Station Type Date Time Source
KRWL METAR 2020/01/20 21:53 UTC NOAA

KRWL 202153Z AUTO 03004KT 10SM CLR M04/M09 A3029 RMK AO2 SLP327 T10441094 $


Station Type Date Time Source
KRWL Decoded METAR 2020/01/20 21:53 UTC NOAA

RAWLINS MUNICIPAL AIRPORT, WY, United States (KRWL) 41-48N 107-12W
Jan 20, 2020 - 04:53 PM EST / 2020.01.20 2153 UTC
Wind: from the NNE (030 degrees) at 5 MPH (4 KT):0
Visibility: 10 mile(s):0
Sky conditions: clear
Temperature: 24.1 F (-4.4 C)
Windchill: 17 F (-8 C):1
Dew Point: 15.1 F (-9.4 C)
Relative Humidity: 68%
Pressure (altimeter): 30.29 in. Hg (1025 hPa)
ob: KRWL 202153Z AUTO 03004KT 10SM CLR M04/M09 A3029 RMK AO2 SLP327 T10441094
cycle: 22

Station Type Date Time Source
KRWL TAF 2020/01/20 18:58 UTC NOAA

TAF KRWL 201757Z 2018/2118 VRB05KT P6SM SKC
FM201900 22007KT P6SM SCT250
FM210700 22009KT P6SM VCSH OVC040
TEMPO 2109/2112 3SM -SN OVC020

Example: see airport list